createdAt,value
2022-12-24T07:21:33.728Z,9.52
2022-12-24T07:22:10.238Z,9.53
2022-12-24T07:22:38.617Z,9.56
2022-12-24T07:23:11.121Z,9.53
2022-12-24T07:23:43.660Z,9.56
2022-12-24T07:24:16.186Z,9.56
2022-12-24T07:24:48.666Z,9.56
2022-12-24T07:25:21.230Z,9.57
2022-12-24T07:25:53.737Z,9.57
2022-12-24T07:26:26.262Z,9.57
2022-12-24T07:26:58.748Z,9.58
2022-12-24T07:27:31.280Z,9.58
2022-12-24T07:28:03.725Z,9.57
2022-12-24T07:28:36.186Z,9.58
2022-12-24T07:29:08.665Z,9.58
2022-12-24T07:29:41.172Z,9.58
2022-12-24T07:30:13.656Z,9.58
2022-12-24T07:30:46.106Z,9.58
2022-12-24T07:31:18.641Z,9.60
2022-12-24T07:31:51.077Z,9.58
2022-12-24T07:32:23.458Z,9.60
2022-12-24T07:32:55.962Z,9.58
2022-12-24T07:33:28.448Z,9.57
2022-12-24T07:34:01.005Z,9.58
2022-12-24T07:34:40.634Z,9.58
2022-12-24T07:35:13.090Z,9.57
2022-12-24T07:35:46.676Z,9.60
2022-12-24T07:36:18.032Z,9.57
2022-12-24T07:36:50.514Z,9.58
2022-12-24T07:37:23.036Z,9.58
2022-12-24T07:37:55.584Z,9.58
2022-12-24T07:38:28.082Z,9.57
2022-12-24T07:39:00.549Z,9.58
2022-12-24T07:39:33.001Z,9.58
2022-12-24T07:40:05.578Z,9.57
2022-12-24T07:40:38.001Z,9.58
2022-12-24T07:41:10.474Z,9.61
2022-12-24T07:41:42.933Z,9.58
2022-12-24T07:42:15.442Z,9.58
2022-12-24T07:42:47.926Z,9.58
2022-12-24T07:43:20.435Z,9.60
2022-12-24T07:43:52.936Z,9.58
2022-12-24T07:44:25.488Z,9.57
2022-12-24T07:44:58.384Z,9.58
2022-12-24T07:45:30.893Z,9.58
2022-12-24T07:46:03.350Z,9.58
2022-12-24T07:46:35.904Z,9.60
2022-12-24T07:47:08.335Z,9.58
2022-12-24T07:47:40.700Z,9.60
2022-12-24T07:48:13.119Z,9.60
2022-12-24T07:48:45.692Z,9.63
2022-12-24T07:49:18.180Z,9.60
2022-12-24T07:49:50.750Z,9.63
2022-12-24T07:50:23.216Z,9.60
2022-12-24T07:50:55.653Z,9.63
2022-12-24T07:51:28.158Z,9.61
2022-12-24T07:52:00.560Z,9.63
2022-12-24T07:52:33.007Z,9.63
2022-12-24T07:53:05.468Z,9.67
2022-12-24T07:53:37.911Z,9.64
2022-12-24T07:54:10.503Z,9.63
2022-12-24T07:54:42.991Z,9.64
2022-12-24T07:55:15.516Z,9.63
2022-12-24T07:55:48.023Z,9.63
2022-12-24T07:56:20.481Z,9.63
2022-12-24T07:56:52.928Z,9.63
2022-12-24T07:57:25.429Z,9.61
2022-12-24T07:57:57.981Z,9.63
2022-12-24T07:58:30.499Z,9.63
2022-12-24T07:59:02.989Z,9.63
2022-12-24T07:59:35.467Z,9.63
2022-12-24T08:00:08.054Z,9.64
2022-12-24T08:00:40.535Z,9.64
2022-12-24T08:01:13.011Z,9.64
2022-12-24T08:01:45.618Z,9.64
2022-12-24T08:02:18.735Z,9.66
2022-12-24T08:02:50.745Z,9.67
2022-12-24T08:03:23.096Z,9.66
2022-12-24T08:03:55.721Z,9.66
2022-12-24T08:04:28.044Z,9.66
2022-12-24T08:05:00.493Z,9.64
2022-12-24T08:05:32.960Z,9.66
2022-12-24T08:06:05.431Z,9.66
2022-12-24T08:06:37.983Z,9.67
2022-12-24T08:07:10.460Z,9.64
2022-12-24T08:07:43.041Z,9.66
2022-12-24T08:08:15.586Z,9.67
2022-12-24T08:08:48.090Z,9.67
2022-12-24T08:09:20.556Z,9.67
2022-12-24T08:09:53.004Z,9.67
2022-12-24T08:10:25.555Z,9.68
2022-12-24T08:10:58.049Z,9.67
2022-12-24T08:11:30.511Z,9.68
2022-12-24T08:12:02.939Z,9.67
2022-12-24T08:12:35.360Z,9.68
2022-12-24T08:13:08.672Z,9.68
2022-12-24T08:13:41.156Z,9.66
2022-12-24T08:14:13.633Z,9.66
2022-12-24T08:14:46.082Z,9.68
2022-12-24T08:15:18.607Z,9.67
2022-12-24T08:15:51.189Z,9.68
2022-12-24T08:16:23.692Z,9.67
2022-12-24T08:16:56.174Z,9.68
2022-12-24T08:17:32.163Z,9.68
2022-12-24T08:18:01.163Z,9.68
2022-12-24T08:18:33.669Z,9.70
2022-12-24T08:19:06.168Z,9.71
2022-12-24T08:19:38.672Z,9.71
2022-12-24T08:20:11.135Z,9.73
2022-12-24T08:20:43.558Z,9.71
2022-12-24T08:21:16.101Z,9.75
2022-12-24T08:21:48.756Z,9.73
2022-12-24T08:22:21.245Z,9.73
2022-12-24T08:22:53.755Z,9.70
2022-12-24T08:23:26.271Z,9.73
2022-12-24T08:23:58.993Z,9.71
2022-12-24T08:24:31.519Z,9.73
2022-12-24T08:25:03.970Z,9.70
2022-12-24T08:25:36.450Z,9.73
2022-12-24T08:26:08.953Z,9.75
2022-12-24T08:26:41.478Z,9.75
2022-12-24T08:27:14.014Z,9.73
2022-12-24T08:27:46.646Z,9.75
2022-12-24T08:28:19.087Z,9.76
2022-12-24T08:28:51.632Z,9.75
2022-12-24T08:29:24.122Z,9.76
2022-12-24T08:29:56.642Z,9.78
2022-12-24T08:30:29.149Z,9.76
2022-12-24T08:31:01.610Z,9.78
2022-12-24T08:31:34.182Z,9.78
2022-12-24T08:32:06.718Z,9.76
2022-12-24T08:32:39.155Z,9.76
2022-12-24T08:33:11.656Z,9.78
2022-12-24T08:33:44.205Z,9.76
2022-12-24T08:34:16.717Z,9.76
2022-12-24T08:34:49.232Z,9.78
2022-12-24T08:35:21.762Z,9.78
2022-12-24T08:35:54.229Z,9.79
2022-12-24T08:36:26.693Z,9.79
2022-12-24T08:36:59.170Z,9.79
2022-12-24T08:37:31.720Z,9.78
2022-12-24T08:38:04.245Z,9.78
2022-12-24T08:38:36.701Z,9.78
2022-12-24T08:39:09.221Z,9.79
2022-12-24T08:39:41.718Z,9.79
2022-12-24T08:40:14.251Z,9.79
2022-12-24T08:40:46.772Z,9.79
2022-12-24T08:41:19.289Z,9.79
2022-12-24T08:41:51.814Z,9.79
2022-12-24T08:42:24.303Z,9.79
2022-12-24T08:42:56.855Z,9.81
2022-12-24T08:43:29.285Z,9.79
2022-12-24T08:44:01.799Z,9.79
2022-12-24T08:44:34.282Z,9.79
2022-12-24T08:45:06.857Z,9.81
2022-12-24T08:45:40.985Z,9.82
2022-12-24T08:46:11.761Z,9.83
2022-12-24T08:46:44.217Z,9.86
2022-12-24T08:47:16.580Z,9.88
2022-12-24T08:47:49.060Z,9.89
2022-12-24T08:48:21.605Z,9.93
2022-12-24T08:48:54.120Z,9.89
2022-12-24T08:49:26.591Z,9.91
2022-12-24T08:49:59.204Z,9.93
2022-12-24T08:50:31.656Z,9.94
2022-12-24T08:51:04.240Z,9.96
2022-12-24T08:51:36.691Z,9.96
2022-12-24T08:52:10.588Z,9.96
2022-12-24T08:52:43.331Z,9.99
2022-12-24T08:53:16.410Z,9.96
2022-12-24T08:53:49.013Z,9.97
2022-12-24T08:54:21.542Z,9.96
2022-12-24T08:54:54.140Z,9.96
2022-12-24T08:55:28.082Z,9.96
2022-12-24T08:56:00.649Z,9.96
2022-12-24T08:56:33.170Z,9.96
2022-12-24T08:57:05.661Z,9.97
2022-12-24T08:57:38.188Z,9.96
2022-12-24T08:58:10.631Z,9.97
2022-12-24T08:58:43.092Z,9.99
2022-12-24T08:59:15.541Z,10.00
2022-12-24T08:59:47.998Z,10.04
2022-12-24T09:00:20.524Z,10.04
2022-12-24T09:00:53.074Z,10.06
2022-12-24T09:01:25.613Z,10.10
2022-12-24T09:01:58.238Z,10.07
2022-12-24T09:02:30.629Z,10.10
2022-12-24T09:03:03.215Z,10.12
2022-12-24T09:03:35.744Z,10.14
2022-12-24T09:04:08.265Z,10.12
2022-12-24T09:04:40.795Z,10.14
2022-12-24T09:05:13.338Z,10.12
2022-12-24T09:05:45.844Z,10.12
2022-12-24T09:06:18.326Z,10.12
2022-12-24T09:06:50.847Z,10.12
2022-12-24T09:07:23.332Z,10.12
2022-12-24T09:07:55.886Z,10.14
2022-12-24T09:08:28.401Z,10.10
2022-12-24T09:09:01.099Z,10.12
2022-12-24T09:09:38.660Z,10.12
2022-12-24T09:10:11.178Z,10.14
2022-12-24T09:10:43.711Z,10.15
2022-12-24T09:11:16.215Z,10.14
2022-12-24T09:11:48.698Z,10.15
2022-12-24T09:12:21.161Z,10.15
2022-12-24T09:12:53.662Z,10.14
2022-12-24T09:13:26.134Z,10.17
2022-12-24T09:13:58.655Z,10.15
2022-12-24T09:14:31.191Z,10.14
2022-12-24T09:15:04.272Z,10.14
2022-12-24T09:15:36.317Z,10.15
2022-12-24T09:16:08.892Z,10.15
2022-12-24T09:16:41.369Z,10.14
2022-12-24T09:17:13.718Z,10.14
2022-12-24T09:17:46.202Z,10.15
2022-12-24T09:18:18.784Z,10.14
2022-12-24T09:18:51.308Z,10.15
2022-12-24T09:19:23.785Z,10.14
2022-12-24T09:19:56.253Z,10.14
2022-12-24T09:20:28.708Z,10.15
2022-12-24T09:21:01.211Z,10.15
2022-12-24T09:21:33.706Z,10.18
2022-12-24T09:22:06.157Z,10.19
2022-12-24T09:22:38.709Z,10.21
2022-12-24T09:23:11.217Z,10.21
2022-12-24T09:23:43.692Z,10.21
2022-12-24T09:24:16.115Z,10.24
2022-12-24T09:24:48.582Z,10.22
2022-12-24T09:25:21.036Z,10.24
2022-12-24T09:25:53.521Z,10.24
2022-12-24T09:26:26.015Z,10.25
2022-12-24T09:26:58.532Z,10.25
2022-12-24T09:27:31.006Z,10.26
2022-12-24T09:28:03.436Z,10.26
2022-12-24T09:28:35.976Z,10.28
2022-12-24T09:29:08.497Z,10.28
2022-12-24T09:29:41.065Z,10.28
2022-12-24T09:30:13.506Z,10.28
2022-12-24T09:30:45.966Z,10.28
2022-12-24T09:31:18.531Z,10.26
2022-12-24T09:31:51.099Z,10.28
2022-12-24T09:32:23.506Z,10.26
2022-12-24T09:32:55.967Z,10.26
2022-12-24T09:33:28.499Z,10.26
2022-12-24T09:34:01.023Z,10.30
2022-12-24T09:34:33.497Z,10.30
2022-12-24T09:35:05.953Z,10.28
2022-12-24T09:35:38.389Z,10.32
2022-12-24T09:36:10.896Z,10.33
2022-12-24T09:36:43.348Z,10.30
2022-12-24T09:37:15.850Z,10.32
2022-12-24T09:37:48.447Z,10.33
2022-12-24T09:38:20.938Z,10.32
2022-12-24T09:38:53.464Z,10.32
2022-12-24T09:39:25.986Z,10.33
2022-12-24T09:39:58.486Z,10.32
2022-12-24T09:40:31.011Z,10.33
2022-12-24T09:41:08.787Z,10.36
2022-12-24T09:41:36.057Z,10.37
2022-12-24T09:42:08.589Z,10.37
2022-12-24T09:42:41.104Z,10.40
2022-12-24T09:43:13.668Z,10.40
2022-12-24T09:43:46.143Z,10.42
2022-12-24T09:44:18.836Z,10.44
2022-12-24T09:44:51.373Z,10.51
2022-12-24T09:45:23.862Z,10.52
2022-12-24T09:45:56.391Z,10.53
2022-12-24T09:46:28.957Z,10.55
2022-12-24T09:47:04.161Z,10.56
2022-12-24T09:47:33.968Z,10.55
2022-12-24T09:48:06.498Z,10.56
2022-12-24T09:48:39.936Z,10.56
2022-12-24T09:49:12.458Z,10.58
2022-12-24T09:49:44.972Z,10.59
2022-12-24T09:50:17.471Z,10.59
2022-12-24T09:50:49.982Z,10.56
2022-12-24T09:51:22.472Z,10.59
2022-12-24T09:51:54.946Z,10.58
2022-12-24T09:52:27.397Z,10.55
2022-12-24T09:52:59.907Z,10.55
2022-12-24T09:53:32.505Z,10.56
2022-12-24T09:54:05.004Z,10.55
2022-12-24T09:54:37.533Z,10.56
2022-12-24T09:55:10.067Z,10.56
2022-12-24T09:55:42.592Z,10.56
2022-12-24T09:56:15.191Z,10.55
2022-12-24T09:56:47.746Z,10.58
2022-12-24T09:57:20.234Z,10.58
2022-12-24T09:57:52.756Z,10.58
2022-12-24T09:58:25.275Z,10.58
2022-12-24T09:58:57.710Z,10.58
2022-12-24T09:59:30.178Z,10.58
2022-12-24T10:00:02.739Z,10.58
2022-12-24T10:00:35.219Z,10.59
2022-12-24T10:01:07.785Z,10.59
2022-12-24T10:01:40.236Z,10.60
2022-12-24T10:02:12.722Z,10.62
2022-12-24T10:02:45.349Z,10.63
2022-12-24T10:03:17.628Z,10.63
2022-12-24T10:03:50.177Z,10.63
2022-12-24T10:04:22.619Z,10.66
2022-12-24T10:04:55.068Z,10.66
2022-12-24T10:05:27.534Z,10.66
2022-12-24T10:06:00.103Z,10.68
2022-12-24T10:06:32.586Z,10.68
2022-12-24T10:07:05.135Z,10.66
2022-12-24T10:07:37.655Z,10.70
2022-12-24T10:08:10.173Z,10.70
2022-12-24T10:08:42.670Z,10.68
2022-12-24T10:09:15.206Z,10.68
2022-12-24T10:09:47.716Z,10.70
2022-12-24T10:10:20.225Z,10.68
2022-12-24T10:10:52.825Z,10.68
2022-12-24T10:11:25.454Z,10.66
2022-12-24T10:11:57.995Z,10.70
2022-12-24T10:12:30.485Z,10.66
2022-12-24T10:13:03.083Z,10.68
2022-12-24T10:13:35.600Z,10.68
2022-12-24T10:14:08.119Z,10.68
2022-12-24T10:14:40.708Z,10.66
2022-12-24T10:15:13.212Z,10.68
2022-12-24T10:15:45.699Z,10.65
2022-12-24T10:16:18.173Z,10.62
2022-12-24T10:16:50.755Z,10.60
2022-12-24T10:17:23.117Z,10.60
2022-12-24T10:17:55.607Z,10.58
2022-12-24T10:18:28.126Z,10.58
2022-12-24T10:19:00.716Z,10.59
2022-12-24T10:19:33.229Z,10.58
2022-12-24T10:20:05.775Z,10.55
2022-12-24T10:20:38.336Z,10.55
2022-12-24T10:21:10.857Z,10.56
2022-12-24T10:21:43.348Z,10.56
2022-12-24T10:22:15.915Z,10.55
2022-12-24T10:22:48.445Z,10.56
2022-12-24T10:23:21.959Z,10.53
2022-12-24T10:23:54.491Z,10.56
2022-12-24T10:24:26.988Z,10.52
2022-12-24T10:24:59.404Z,10.55
2022-12-24T10:25:31.876Z,10.55
2022-12-24T10:26:04.410Z,10.56
2022-12-24T10:26:36.978Z,10.56
2022-12-24T10:27:09.452Z,10.58
2022-12-24T10:27:41.953Z,10.58
2022-12-24T10:28:14.531Z,10.56
2022-12-24T10:28:47.024Z,10.55
2022-12-24T10:29:19.493Z,10.55
2022-12-24T10:29:51.959Z,10.55
2022-12-24T10:30:24.426Z,10.55
2022-12-24T10:30:57.005Z,10.55
2022-12-24T10:31:30.073Z,10.56
2022-12-24T10:32:02.563Z,10.56
2022-12-24T10:32:35.261Z,10.55
2022-12-24T10:33:07.745Z,10.56
2022-12-24T10:33:40.239Z,10.56
2022-12-24T10:34:12.681Z,10.55
2022-12-24T10:34:45.158Z,10.58
2022-12-24T10:35:17.609Z,10.53
2022-12-24T10:35:50.101Z,10.56
2022-12-24T10:36:22.658Z,10.56
2022-12-24T10:36:55.110Z,10.56
2022-12-24T10:37:27.586Z,10.56
2022-12-24T10:38:00.109Z,10.58
2022-12-24T10:38:32.605Z,10.58
2022-12-24T10:39:05.119Z,10.58
2022-12-24T10:39:37.624Z,10.59
2022-12-24T10:40:10.124Z,10.59
2022-12-24T10:40:42.600Z,10.60
2022-12-24T10:41:15.086Z,10.60
2022-12-24T10:41:47.574Z,10.62
2022-12-24T10:42:20.181Z,10.62
2022-12-24T10:42:52.696Z,10.62
2022-12-24T10:43:25.275Z,10.62
2022-12-24T10:43:57.859Z,10.63
2022-12-24T10:44:30.353Z,10.62
2022-12-24T10:45:02.939Z,10.62
2022-12-24T10:45:35.509Z,10.59
2022-12-24T10:46:07.954Z,10.60
2022-12-24T10:46:40.452Z,10.60
2022-12-24T10:47:13.011Z,10.60
2022-12-24T10:47:45.461Z,10.60
2022-12-24T10:48:18.009Z,10.59
2022-12-24T10:48:51.059Z,10.60
2022-12-24T10:49:23.164Z,10.60
2022-12-24T10:49:55.628Z,10.60
2022-12-24T10:50:28.084Z,10.59
2022-12-24T10:51:00.621Z,10.62
2022-12-24T10:51:33.130Z,10.63
2022-12-24T10:52:05.632Z,10.65
2022-12-24T10:52:38.150Z,10.63
2022-12-24T10:53:10.671Z,10.65
2022-12-24T10:53:43.174Z,10.65
2022-12-24T10:54:19.480Z,10.66
2022-12-24T10:54:48.127Z,10.66
2022-12-24T10:55:20.624Z,10.68
2022-12-24T10:55:53.167Z,10.66
2022-12-24T10:56:25.663Z,10.68
2022-12-24T10:56:58.132Z,10.66
2022-12-24T10:57:30.593Z,10.70
2022-12-24T10:58:03.046Z,10.71
2022-12-24T10:58:35.473Z,10.68
2022-12-24T10:59:07.946Z,10.70
2022-12-24T10:59:40.461Z,10.71
2022-12-24T11:00:12.929Z,10.73
2022-12-24T11:00:45.430Z,10.74
2022-12-24T11:01:18.052Z,10.74
2022-12-24T11:01:50.583Z,10.78
2022-12-24T11:02:23.166Z,10.78
2022-12-24T11:02:55.769Z,10.80
2022-12-24T11:03:28.263Z,10.77
2022-12-24T11:04:00.548Z,10.80
2022-12-24T11:04:33.005Z,10.81
2022-12-24T11:05:05.492Z,10.84
2022-12-24T11:05:38.029Z,10.86
2022-12-24T11:06:10.605Z,10.86
2022-12-24T11:06:49.029Z,10.86
2022-12-24T11:07:15.593Z,10.84
2022-12-24T11:07:48.157Z,10.83
2022-12-24T11:08:20.717Z,10.84
2022-12-24T11:08:53.227Z,10.83
2022-12-24T11:09:25.783Z,10.84
2022-12-24T11:09:58.267Z,10.83
2022-12-24T11:10:30.720Z,10.84
2022-12-24T11:11:03.280Z,10.86
2022-12-24T11:11:35.717Z,10.88
2022-12-24T11:12:09.601Z,10.88
2022-12-24T11:12:40.824Z,10.88
2022-12-24T11:13:37.003Z,10.88
2022-12-24T11:13:45.818Z,10.89
2022-12-24T11:14:18.305Z,10.88
2022-12-24T11:14:50.741Z,10.88
2022-12-24T11:15:23.202Z,10.88
2022-12-24T11:15:55.736Z,10.91
2022-12-24T11:16:28.324Z,10.92
2022-12-24T11:17:00.699Z,10.92
2022-12-24T11:17:33.182Z,10.94
2022-12-24T11:18:05.687Z,10.95
2022-12-24T11:18:38.186Z,10.98
2022-12-24T11:19:10.688Z,10.99
2022-12-24T11:19:43.212Z,11.01
2022-12-24T11:20:15.780Z,11.03
2022-12-24T11:20:48.293Z,11.06
2022-12-24T11:21:20.899Z,11.07
2022-12-24T11:21:53.346Z,11.10
2022-12-24T11:22:25.800Z,11.09
2022-12-24T11:22:58.345Z,11.11
2022-12-24T11:23:30.794Z,11.13
2022-12-24T11:24:03.307Z,11.13
2022-12-24T11:24:35.729Z,11.14
2022-12-24T11:25:08.247Z,11.16
2022-12-24T11:25:40.718Z,11.19
2022-12-24T11:26:14.256Z,11.19
2022-12-24T11:26:46.761Z,11.21
2022-12-24T11:27:19.311Z,11.19
2022-12-24T11:27:51.867Z,11.16
2022-12-24T11:28:24.205Z,11.16
2022-12-24T11:28:56.687Z,11.16
2022-12-24T11:29:29.192Z,11.13
2022-12-24T11:30:03.072Z,11.14
2022-12-24T11:30:34.261Z,11.13
2022-12-24T11:31:06.915Z,11.13
2022-12-24T11:31:39.448Z,11.11
2022-12-24T11:32:11.856Z,11.11
2022-12-24T11:32:44.318Z,11.09
2022-12-24T11:33:16.767Z,11.11
2022-12-24T11:33:49.332Z,11.09
2022-12-24T11:34:21.889Z,11.09
2022-12-24T11:34:54.389Z,11.09
2022-12-24T11:35:26.864Z,11.09
2022-12-24T11:35:59.358Z,11.07
2022-12-24T11:36:31.854Z,11.07
2022-12-24T11:37:06.883Z,11.06
2022-12-24T11:37:36.837Z,11.03
2022-12-24T11:38:09.348Z,11.02
2022-12-24T11:38:41.817Z,11.01
2022-12-24T11:39:14.406Z,11.01
2022-12-24T11:39:46.908Z,10.98
2022-12-24T11:40:19.394Z,10.98
2022-12-24T11:40:51.887Z,10.98
2022-12-24T11:41:24.358Z,10.99
2022-12-24T11:41:56.848Z,11.01
2022-12-24T11:42:29.340Z,10.99
2022-12-24T11:43:01.800Z,11.01
2022-12-24T11:43:34.317Z,10.99
2022-12-24T11:44:06.813Z,10.99
2022-12-24T11:44:39.252Z,10.99
2022-12-24T11:45:11.773Z,11.01
2022-12-24T11:45:44.322Z,11.02
2022-12-24T11:46:16.864Z,11.02
2022-12-24T11:46:49.354Z,11.02
2022-12-24T11:47:21.801Z,11.03
2022-12-24T11:47:54.387Z,11.01
2022-12-24T11:48:26.903Z,10.99
2022-12-24T11:49:02.800Z,10.98
2022-12-24T11:49:31.962Z,10.95
2022-12-24T11:50:18.273Z,10.95
2022-12-24T11:50:37.041Z,10.96
2022-12-24T11:51:09.514Z,10.95
2022-12-24T11:51:42.032Z,10.96
2022-12-24T11:52:14.542Z,10.96
2022-12-24T11:52:47.125Z,10.96
2022-12-24T11:53:19.718Z,10.96
2022-12-24T11:53:52.322Z,10.96
2022-12-24T11:54:24.840Z,10.99
2022-12-24T11:54:57.314Z,10.99
2022-12-24T11:55:29.739Z,10.96
2022-12-24T11:56:02.269Z,10.96
2022-12-24T11:56:34.760Z,10.95
2022-12-24T11:57:07.223Z,10.92
2022-12-24T11:57:39.680Z,10.91
2022-12-24T11:58:12.154Z,10.89
2022-12-24T11:58:44.638Z,10.89
2022-12-24T11:59:17.091Z,10.89
2022-12-24T11:59:49.579Z,10.86
2022-12-24T12:00:22.110Z,10.84
2022-12-24T12:00:54.676Z,10.84
2022-12-24T12:01:27.269Z,10.83
2022-12-24T12:01:59.791Z,10.83
2022-12-24T12:02:32.179Z,10.84
2022-12-24T12:03:04.801Z,10.80
2022-12-24T12:03:37.347Z,10.81
2022-12-24T12:04:09.872Z,10.80
2022-12-24T12:04:42.250Z,10.80
2022-12-24T12:05:14.716Z,10.80
2022-12-24T12:05:47.160Z,10.78
2022-12-24T12:06:19.709Z,10.78
2022-12-24T12:06:52.171Z,10.78
2022-12-24T12:07:24.658Z,10.76
2022-12-24T12:07:57.289Z,10.74
2022-12-24T12:08:29.747Z,10.68
2022-12-24T12:09:02.224Z,10.66
2022-12-24T12:09:34.704Z,10.65
2022-12-24T12:10:07.271Z,10.66
2022-12-24T12:10:39.795Z,10.65
2022-12-24T12:11:12.319Z,10.63
2022-12-24T12:11:44.897Z,10.60
2022-12-24T12:12:17.480Z,10.60
2022-12-24T12:12:50.006Z,10.58
2022-12-24T12:13:22.635Z,10.59
2022-12-24T12:13:55.124Z,10.58
2022-12-24T12:14:27.635Z,10.58
2022-12-24T12:15:00.248Z,10.53
2022-12-24T12:15:32.898Z,10.55
2022-12-24T12:16:05.534Z,10.53
2022-12-24T12:16:38.048Z,10.52
2022-12-24T12:17:10.505Z,10.52
2022-12-24T12:17:43.016Z,10.51
2022-12-24T12:18:15.696Z,10.52
2022-12-24T12:18:48.290Z,10.51
2022-12-24T12:19:20.773Z,10.47
2022-12-24T12:19:53.283Z,10.52
2022-12-24T12:20:25.779Z,10.47
2022-12-24T12:20:58.271Z,10.47
2022-12-24T12:21:30.779Z,10.46
2022-12-24T12:22:03.434Z,10.44
2022-12-24T12:22:35.903Z,10.43
2022-12-24T12:23:08.471Z,10.43
2022-12-24T12:23:41.032Z,10.42
2022-12-24T12:24:13.502Z,10.44
2022-12-24T12:24:46.000Z,10.43
2022-12-24T12:25:18.532Z,10.43
2022-12-24T12:25:50.972Z,10.44
2022-12-24T12:26:23.446Z,10.43
2022-12-24T12:26:55.896Z,10.44
2022-12-24T12:27:28.407Z,10.44
2022-12-24T12:28:00.953Z,10.44
2022-12-24T12:28:33.467Z,10.44
2022-12-24T12:29:05.960Z,10.43
2022-12-24T12:29:38.454Z,10.42
2022-12-24T12:30:10.932Z,10.43
2022-12-24T12:30:43.376Z,10.44
2022-12-24T12:31:16.630Z,10.43
2022-12-24T12:31:48.387Z,10.46
2022-12-24T12:32:20.828Z,10.43
2022-12-24T12:32:53.469Z,10.43
2022-12-24T12:33:25.958Z,10.43
2022-12-24T12:33:58.330Z,10.43
2022-12-24T12:34:30.786Z,10.44
2022-12-24T12:35:03.222Z,10.47
2022-12-24T12:35:35.657Z,10.51
2022-12-24T12:36:08.159Z,10.53
2022-12-24T12:36:40.639Z,10.51
2022-12-24T12:37:15.097Z,10.53
2022-12-24T12:37:45.642Z,10.53
2022-12-24T12:38:18.195Z,10.56
2022-12-24T12:38:50.741Z,10.58
2022-12-24T12:39:23.253Z,10.56
2022-12-24T12:39:55.768Z,10.59
2022-12-24T12:40:28.216Z,10.58
2022-12-24T12:41:00.656Z,10.59
2022-12-24T12:41:33.168Z,10.59
2022-12-24T12:42:05.703Z,10.60
2022-12-24T12:42:38.197Z,10.62
2022-12-24T12:43:14.201Z,10.63
2022-12-24T12:43:43.214Z,10.63
2022-12-24T12:44:15.705Z,10.66
2022-12-24T12:44:48.130Z,10.66
2022-12-24T12:45:20.558Z,10.66
2022-12-24T12:45:53.019Z,10.70
2022-12-24T12:46:25.591Z,10.70
2022-12-24T12:46:58.097Z,10.71
2022-12-24T12:47:30.557Z,10.71
2022-12-24T12:48:03.053Z,10.71
2022-12-24T12:48:35.582Z,10.73
2022-12-24T12:49:08.067Z,10.74
2022-12-24T12:49:40.507Z,10.73
2022-12-24T12:50:12.986Z,10.74
2022-12-24T12:50:45.503Z,10.74
2022-12-24T12:51:17.999Z,10.76
2022-12-24T12:51:50.622Z,10.73
2022-12-24T12:52:23.087Z,10.76
2022-12-24T12:52:55.683Z,10.76
2022-12-24T12:53:28.152Z,10.77
2022-12-24T12:54:00.695Z,10.74
2022-12-24T12:54:33.209Z,10.77
2022-12-24T12:55:05.629Z,10.77
2022-12-24T12:55:38.203Z,10.76
2022-12-24T12:56:10.708Z,10.74
2022-12-24T12:56:43.247Z,10.74
2022-12-24T12:57:15.835Z,10.74
2022-12-24T12:57:48.345Z,10.74
2022-12-24T12:58:20.856Z,10.73
2022-12-24T12:58:53.391Z,10.73
2022-12-24T12:59:25.916Z,10.73
2022-12-24T12:59:58.419Z,10.74
2022-12-24T13:00:30.965Z,10.70
2022-12-24T13:01:03.517Z,10.71
2022-12-24T13:01:36.017Z,10.70
2022-12-24T13:02:08.583Z,10.70
2022-12-24T13:02:41.312Z,10.68
2022-12-24T13:03:13.811Z,10.68
2022-12-24T13:03:47.134Z,10.68
2022-12-24T13:04:20.154Z,10.70
2022-12-24T13:04:52.704Z,10.68
2022-12-24T13:05:25.152Z,10.70
2022-12-24T13:05:57.644Z,10.68
2022-12-24T13:06:30.178Z,10.70
2022-12-24T13:07:02.707Z,10.66
2022-12-24T13:07:37.992Z,10.66
2022-12-24T13:08:07.830Z,10.65
2022-12-24T13:08:40.365Z,10.66
2022-12-24T13:09:12.855Z,10.65
2022-12-24T13:09:45.371Z,10.66
2022-12-24T13:10:17.908Z,10.65
2022-12-24T13:10:50.376Z,10.63
2022-12-24T13:11:22.907Z,10.65
2022-12-24T13:11:55.414Z,10.65
2022-12-24T13:12:27.938Z,10.65
2022-12-24T13:13:00.460Z,10.65
2022-12-24T13:13:32.945Z,10.66
2022-12-24T13:14:05.391Z,10.66
2022-12-24T13:14:37.925Z,10.68
2022-12-24T13:15:10.513Z,10.66
2022-12-24T13:15:43.042Z,10.66
2022-12-24T13:16:15.745Z,10.66
2022-12-24T13:16:48.336Z,10.63
2022-12-24T13:17:20.684Z,10.63
2022-12-24T13:17:53.166Z,10.62
2022-12-24T13:18:25.669Z,10.62
2022-12-24T13:18:58.240Z,10.62
2022-12-24T13:19:35.997Z,10.60
2022-12-24T13:20:03.155Z,10.59
2022-12-24T13:20:35.711Z,10.60
2022-12-24T13:21:08.270Z,10.62
2022-12-24T13:21:40.826Z,10.62
2022-12-24T13:22:13.378Z,10.62
2022-12-24T13:22:45.850Z,10.60
2022-12-24T13:23:18.301Z,10.60
2022-12-24T13:23:50.757Z,10.63
2022-12-24T13:24:23.203Z,10.63
2022-12-24T13:24:55.694Z,10.63
2022-12-24T13:25:28.143Z,10.66
2022-12-24T13:26:00.631Z,10.65
2022-12-24T13:26:33.173Z,10.66
2022-12-24T13:27:05.667Z,10.65
2022-12-24T13:27:38.160Z,10.66
2022-12-24T13:28:10.619Z,10.66
2022-12-24T13:28:43.170Z,10.68
2022-12-24T13:29:15.731Z,10.68
2022-12-24T13:29:48.204Z,10.70
2022-12-24T13:30:20.697Z,10.73
2022-12-24T13:30:53.238Z,10.73
2022-12-24T13:31:25.896Z,10.76
2022-12-24T13:31:58.342Z,10.76
2022-12-24T13:32:30.855Z,10.76
2022-12-24T13:33:03.462Z,10.77
2022-12-24T13:33:35.963Z,10.81
2022-12-24T13:34:08.435Z,10.83
2022-12-24T13:34:40.991Z,10.84
2022-12-24T13:35:20.246Z,10.84
2022-12-24T13:35:52.727Z,10.88
2022-12-24T13:36:25.195Z,10.89
2022-12-24T13:36:57.682Z,10.92
2022-12-24T13:37:30.126Z,10.94
2022-12-24T13:38:02.655Z,10.95
2022-12-24T13:38:35.122Z,10.95
2022-12-24T13:39:07.569Z,10.98
2022-12-24T13:39:40.099Z,10.96
2022-12-24T13:40:12.665Z,11.01
2022-12-24T13:40:45.187Z,11.01
2022-12-24T13:41:17.709Z,11.03
2022-12-24T13:41:50.242Z,11.03
2022-12-24T13:42:22.751Z,11.07
2022-12-24T13:42:55.246Z,11.10
2022-12-24T13:43:27.835Z,11.11
2022-12-24T13:44:00.345Z,11.10
2022-12-24T13:44:33.039Z,11.11
2022-12-24T13:45:05.264Z,11.10
2022-12-24T13:45:37.796Z,11.11
2022-12-24T13:46:10.240Z,11.11
2022-12-24T13:46:42.666Z,11.13
2022-12-24T13:47:15.104Z,11.14
2022-12-24T13:47:47.666Z,11.14
2022-12-24T13:48:20.174Z,11.16
2022-12-24T13:48:52.645Z,11.19
2022-12-24T13:49:25.121Z,11.19
2022-12-24T13:49:57.595Z,11.21
2022-12-24T13:50:30.070Z,11.24
2022-12-24T13:51:02.566Z,11.28
2022-12-24T13:51:35.080Z,11.27
2022-12-24T13:52:07.580Z,11.25
2022-12-24T13:52:42.746Z,11.21
2022-12-24T13:53:12.615Z,11.25
2022-12-24T13:53:45.057Z,11.24
2022-12-24T13:54:17.490Z,11.24
2022-12-24T13:54:50.077Z,11.24
2022-12-24T13:55:22.555Z,11.24
2022-12-24T13:55:55.103Z,11.19
2022-12-24T13:56:27.626Z,11.20
2022-12-24T13:57:00.118Z,11.19
2022-12-24T13:57:32.577Z,11.16
2022-12-24T13:58:05.027Z,11.14
2022-12-24T13:58:37.561Z,11.17
2022-12-24T13:59:10.062Z,11.17
2022-12-24T13:59:42.530Z,11.17
2022-12-24T14:00:14.985Z,11.17
2022-12-24T14:00:47.540Z,11.19
2022-12-24T14:01:20.041Z,11.17
2022-12-24T14:01:52.671Z,11.19
2022-12-24T14:02:25.040Z,11.17
2022-12-24T14:02:57.772Z,11.17
2022-12-24T14:03:29.961Z,11.14
2022-12-24T14:04:02.423Z,11.14
2022-12-24T14:04:34.891Z,11.14
2022-12-24T14:05:07.320Z,11.11
2022-12-24T14:05:39.836Z,11.10
2022-12-24T14:06:12.303Z,11.10
2022-12-24T14:06:44.788Z,11.11
2022-12-24T14:07:17.235Z,11.11
2022-12-24T14:07:49.756Z,11.10
2022-12-24T14:08:22.216Z,11.09
2022-12-24T14:08:54.772Z,11.06
2022-12-24T14:09:27.287Z,11.06
2022-12-24T14:09:59.753Z,11.02
2022-12-24T14:10:32.289Z,11.02
2022-12-24T14:11:04.869Z,10.99
2022-12-24T14:11:38.134Z,10.99
2022-12-24T14:12:16.299Z,10.98
2022-12-24T14:12:42.348Z,10.96
2022-12-24T14:13:14.876Z,10.95
2022-12-24T14:13:47.418Z,10.95
2022-12-24T14:14:19.870Z,10.94
2022-12-24T14:14:52.364Z,10.91
2022-12-24T14:15:24.871Z,10.89
2022-12-24T14:15:57.548Z,10.89
2022-12-24T14:16:30.107Z,10.86
2022-12-24T14:17:02.592Z,10.86
2022-12-24T14:17:35.019Z,10.83
2022-12-24T14:18:07.417Z,10.83
2022-12-24T14:18:39.876Z,10.80
2022-12-24T14:19:12.362Z,10.81
2022-12-24T14:19:44.786Z,10.78
2022-12-24T14:20:17.288Z,10.78
2022-12-24T14:20:49.807Z,10.76
2022-12-24T14:21:22.273Z,10.74
2022-12-24T14:21:54.721Z,10.71
2022-12-24T14:22:27.236Z,10.73
2022-12-24T14:22:59.775Z,10.70
2022-12-24T14:23:32.313Z,10.71